createdAt,value
2018-05-10T00:00:42.735Z,17.23
2018-05-10T00:02:04.569Z,17.18
2018-05-10T00:03:26.675Z,17.12
2018-05-10T00:04:48.482Z,17.01
2018-05-10T00:06:10.360Z,17.07
2018-05-10T00:07:32.173Z,17.07
2018-05-10T00:08:54.293Z,17.01
2018-05-10T00:10:15.844Z,17
2018-05-10T00:11:36.868Z,16.98
2018-05-10T00:12:58.928Z,17
2018-05-10T00:14:20.756Z,16.98
2018-05-10T00:15:42.831Z,17
2018-05-10T00:17:04.906Z,16.97
2018-05-10T00:18:26.446Z,17.01
2018-05-10T00:19:48.505Z,16.96
2018-05-10T00:21:10.576Z,16.88
2018-05-10T00:22:32.381Z,16.86
2018-05-10T00:23:53.920Z,16.94
2018-05-10T00:25:15.734Z,16.93
2018-05-10T00:26:37.815Z,16.85
2018-05-10T00:27:59.981Z,16.81
2018-05-10T00:29:22.058Z,16.83
2018-05-10T00:30:43.602Z,16.68
2018-05-10T00:32:05.419Z,16.73
2018-05-10T00:33:27.491Z,16.83
2018-05-10T00:34:49.309Z,16.71
2018-05-10T00:36:11.383Z,16.68
2018-05-10T00:37:33.178Z,16.64
2018-05-10T00:38:55.235Z,16.63
2018-05-10T00:40:17.346Z,16.5
2018-05-10T00:41:39.165Z,16.6
2018-05-10T00:43:01.221Z,16.42
2018-05-10T00:44:23.003Z,16.52
2018-05-10T00:45:44.799Z,16.39
2018-05-10T00:47:06.605Z,16.46
2018-05-10T00:48:28.665Z,16.39
2018-05-10T00:49:50.454Z,16.39
2018-05-10T00:51:12.021Z,16.35
2018-05-10T00:52:34.083Z,16.34
2018-05-10T00:53:55.916Z,16.28
2018-05-10T00:55:17.730Z,16.3
2018-05-10T00:56:39.814Z,16.24
2018-05-10T00:58:01.607Z,16.24
2018-05-10T00:59:23.690Z,16.24
2018-05-10T01:00:45.777Z,16.24
2018-05-10T01:02:07.566Z,16.09
2018-05-10T01:03:29.112Z,16.15
2018-05-10T01:04:50.682Z,16.11
2018-05-10T01:06:12.964Z,16.09
2018-05-10T01:07:35.057Z,16.15
2018-05-10T01:08:56.585Z,16.14
2018-05-10T01:10:18.395Z,16.2
2018-05-10T01:11:39.924Z,16.21
2018-05-10T01:13:01.198Z,16.08
2018-05-10T01:14:23.270Z,16.2
2018-05-10T01:15:45.070Z,16.2
2018-05-10T01:17:06.876Z,16.09
2018-05-10T01:18:28.426Z,16.14
2018-05-10T01:19:50.507Z,16.08
2018-05-10T01:21:12.327Z,16.12
2018-05-10T01:22:34.117Z,16.11
2018-05-10T01:23:55.648Z,16.09
2018-05-10T01:25:17.174Z,16.2
2018-05-10T01:26:39.237Z,16.24
2018-05-10T01:28:01.124Z,16.27
2018-05-10T01:29:22.938Z,16.3
2018-05-10T01:30:45.005Z,16.39
2018-05-10T01:32:06.821Z,16.38
2018-05-10T01:33:28.876Z,16.25
2018-05-10T01:34:50.943Z,16.33
2018-05-10T01:36:13.027Z,16.28
2018-05-10T01:37:34.554Z,16.34
2018-05-10T01:38:56.352Z,16.33
2018-05-10T01:40:18.140Z,16.25
2018-05-10T01:41:39.990Z,16.23
2018-05-10T01:43:01.537Z,16.17
2018-05-10T01:44:23.610Z,16.14
2018-05-10T01:45:44.640Z,16.17
2018-05-10T01:47:06.446Z,16.12
2018-05-10T01:48:28.250Z,16.08
2018-05-10T01:49:50.038Z,16.05
2018-05-10T01:51:12.100Z,16.05
2018-05-10T01:52:33.901Z,16.04
2018-05-10T01:53:55.442Z,16.02
2018-05-10T01:55:17.252Z,16
2018-05-10T01:56:39.052Z,15.96
2018-05-10T01:58:00.876Z,15.94
2018-05-10T01:59:22.945Z,15.89
2018-05-10T02:00:45.016Z,15.87
2018-05-10T02:02:06.835Z,15.87
2018-05-10T02:03:28.636Z,15.83
2018-05-10T02:04:50.747Z,15.75
2018-05-10T02:06:12.827Z,15.82
2018-05-10T02:07:34.890Z,15.71
2018-05-10T02:08:56.962Z,15.74
2018-05-10T02:10:18.487Z,15.69
2018-05-10T02:11:40.284Z,15.71
2018-05-10T02:13:02.104Z,15.72
2018-05-10T02:14:23.639Z,15.68
2018-05-10T02:15:45.447Z,15.64
2018-05-10T02:17:06.988Z,15.51
2018-05-10T02:18:29.134Z,15.53
2018-05-10T02:19:51.182Z,15.54
2018-05-10T02:21:12.985Z,15.59
2018-05-10T02:22:34.788Z,15.47
2018-05-10T02:23:56.575Z,15.56
2018-05-10T02:25:18.633Z,15.59
2018-05-10T02:26:40.436Z,15.53
2018-05-10T02:28:02.232Z,15.44
2018-05-10T02:29:24.038Z,15.51
2018-05-10T02:30:45.579Z,15.46
2018-05-10T02:32:07.391Z,15.35
2018-05-10T02:33:29.449Z,15.31
2018-05-10T02:34:51.255Z,15.2
2018-05-10T02:36:13.334Z,15.25
2018-05-10T02:37:35.223Z,15.14
2018-05-10T02:38:57.017Z,15.17
2018-05-10T02:40:18.845Z,15.17
2018-05-10T02:41:40.921Z,15.03
2018-05-10T02:43:02.730Z,15.1
2018-05-10T02:44:24.534Z,15.1
2018-05-10T02:45:46.070Z,15.09
2018-05-10T02:47:08.121Z,15.11
2018-05-10T02:48:30.183Z,15.07
2018-05-10T02:49:52.000Z,15.02
2018-05-10T02:51:13.537Z,15.01
2018-05-10T02:52:35.354Z,14.95
2018-05-10T02:53:57.144Z,14.95
2018-05-10T02:55:18.967Z,15.09
2018-05-10T02:56:41.047Z,14.99
2018-05-10T02:58:03.126Z,15.03
2018-05-10T02:59:24.943Z,15.03
2018-05-10T03:00:46.760Z,14.98
2018-05-10T03:02:08.305Z,14.98
2018-05-10T03:03:30.367Z,15.01
2018-05-10T03:04:51.921Z,14.88
2018-05-10T03:06:14.006Z,14.75
2018-05-10T03:07:35.799Z,14.64
2018-05-10T03:08:57.865Z,14.75
2018-05-10T03:10:19.937Z,14.55
2018-05-10T03:11:41.764Z,14.61
2018-05-10T03:13:03.570Z,14.45
2018-05-10T03:14:25.124Z,14.46
2018-05-10T03:15:47.180Z,14.28
2018-05-10T03:17:09.269Z,14.4
2018-05-10T03:18:31.319Z,14.36
2018-05-10T03:19:52.860Z,14.39
2018-05-10T03:21:14.677Z,14.4
2018-05-10T03:22:36.468Z,14.4
2018-05-10T03:23:58.529Z,14.45
2018-05-10T03:25:20.320Z,14.45
2018-05-10T03:26:42.390Z,14.39
2018-05-10T03:28:03.763Z,14.4
2018-05-10T03:29:25.852Z,14.46
2018-05-10T03:30:47.916Z,14.45
2018-05-10T03:32:09.978Z,14.42
2018-05-10T03:33:32.202Z,14.5
2018-05-10T03:34:54.009Z,14.46
2018-05-10T03:36:15.797Z,14.57
2018-05-10T03:37:37.332Z,14.54
2018-05-10T03:38:58.604Z,14.51
2018-05-10T03:40:20.402Z,14.55
2018-05-10T03:41:42.755Z,14.52
2018-05-10T03:43:04.806Z,14.46
2018-05-10T03:44:26.591Z,14.57
2018-05-10T03:45:48.389Z,14.5
2018-05-10T03:47:10.461Z,14.55
2018-05-10T03:48:32.526Z,14.65
2018-05-10T03:49:54.586Z,14.64
2018-05-10T03:51:16.120Z,14.72
2018-05-10T03:52:37.645Z,14.65
2018-05-10T03:53:59.713Z,14.58
2018-05-10T03:55:21.553Z,14.58
2018-05-10T03:56:43.602Z,14.69
2018-05-10T03:58:05.674Z,14.68
2018-05-10T03:59:27.547Z,14.73
2018-05-10T04:00:49.081Z,14.7
2018-05-10T04:02:10.871Z,14.8
2018-05-10T04:03:32.409Z,14.81
2018-05-10T04:04:54.217Z,14.89
2018-05-10T04:06:16.169Z,15.01
2018-05-10T04:07:37.704Z,14.98
2018-05-10T04:08:59.816Z,15.01
2018-05-10T04:10:21.326Z,14.99
2018-05-10T04:11:43.136Z,15.01
2018-05-10T04:13:05.222Z,15.16
2018-05-10T04:14:27.014Z,15.09
2018-05-10T04:15:48.950Z,15.11
2018-05-10T04:17:10.749Z,15.13
2018-05-10T04:18:32.814Z,15.23
2018-05-10T04:19:54.615Z,15.19
2018-05-10T04:21:16.715Z,15.35
2018-05-10T04:22:38.508Z,15.28
2018-05-10T04:24:00.578Z,15.34
2018-05-10T04:25:22.370Z,15.41
2018-05-10T04:26:43.646Z,15.44
2018-05-10T04:28:05.490Z,15.51
2018-05-10T04:29:27.284Z,15.56
2018-05-10T04:30:49.086Z,15.57
2018-05-10T04:32:11.148Z,15.5
2018-05-10T04:33:33.224Z,15.51
2018-05-10T04:34:55.028Z,15.57
2018-05-10T04:36:17.098Z,15.68
2018-05-10T04:37:38.902Z,15.69
2018-05-10T04:39:00.983Z,15.71
2018-05-10T04:40:22.785Z,15.71
2018-05-10T04:41:44.576Z,15.75
2018-05-10T04:43:06.389Z,15.87
2018-05-10T04:44:28.482Z,15.96
2018-05-10T04:45:50.562Z,16.09
2018-05-10T04:47:12.350Z,16.05
2018-05-10T04:48:34.416Z,16.23
2018-05-10T04:49:56.223Z,16.3
2018-05-10T04:51:18.012Z,16.45
2018-05-10T04:52:40.083Z,16.57
2018-05-10T04:54:01.971Z,16.64
2018-05-10T04:55:24.042Z,16.66
2018-05-10T04:56:45.848Z,16.79
2018-05-10T04:58:07.909Z,16.83
2018-05-10T04:59:29.439Z,16.88
2018-05-10T05:00:51.503Z,16.89
2018-05-10T05:02:13.579Z,16.98
2018-05-10T05:03:35.780Z,17.11
2018-05-10T05:04:57.587Z,17.3
2018-05-10T05:06:19.669Z,17.54
2018-05-10T05:07:41.467Z,18.42
2018-05-10T05:09:03.667Z,19.81
2018-05-10T05:10:25.298Z,21.19
2018-05-10T05:11:47.363Z,22.73
2018-05-10T05:13:09.595Z,23.84
2018-05-10T05:14:31.424Z,24.61
2018-05-10T05:15:53.505Z,25.2
2018-05-10T05:17:15.320Z,25.55
2018-05-10T05:18:37.118Z,25.92
2018-05-10T05:19:58.909Z,26.23
2018-05-10T05:21:20.716Z,26.88
2018-05-10T05:22:42.946Z,27.54
2018-05-10T05:24:04.502Z,28
2018-05-10T05:25:26.042Z,28.14
2018-05-10T05:26:47.858Z,28.14
2018-05-10T05:28:09.454Z,28.59
2018-05-10T05:29:31.542Z,28.81
2018-05-10T05:30:53.621Z,29.28
2018-05-10T05:32:15.699Z,29.61
2018-05-10T05:33:37.520Z,29.57
2018-05-10T05:34:59.070Z,29.64
2018-05-10T05:36:20.635Z,30.19
2018-05-10T05:37:42.749Z,30.29
2018-05-10T05:39:04.570Z,30.35
2018-05-10T05:40:26.104Z,30.54
2018-05-10T05:41:48.182Z,30.7
2018-05-10T05:43:10.300Z,31.02
2018-05-10T05:44:32.373Z,31.13
2018-05-10T05:45:54.451Z,31.53
2018-05-10T05:47:16.555Z,32.06
2018-05-10T05:48:38.642Z,32.51
2018-05-10T05:50:00.732Z,32.81
2018-05-10T05:51:22.908Z,33.47
2018-05-10T05:52:44.459Z,33.97
2018-05-10T05:54:06.260Z,34.46
2018-05-10T05:55:28.326Z,34.91
2018-05-10T05:56:50.409Z,35.29
2018-05-10T05:58:12.217Z,35.58
2018-05-10T05:59:33.796Z,35.77
2018-05-10T06:00:55.738Z,36.13
2018-05-10T06:02:17.847Z,36.16
2018-05-10T06:03:39.958Z,35.55
2018-05-10T06:05:01.776Z,35.09
2018-05-10T06:06:23.604Z,35
2018-05-10T06:07:45.684Z,35.25
2018-05-10T06:09:07.766Z,35.74
2018-05-10T06:10:29.862Z,35.99
2018-05-10T06:11:51.416Z,36.12
2018-05-10T06:13:13.578Z,36.65
2018-05-10T06:14:35.392Z,36.38
2018-05-10T06:15:57.851Z,36.07
2018-05-10T06:17:20.199Z,36.13
2018-05-10T06:18:42.282Z,36.56
2018-05-10T06:20:04.098Z,37.03
2018-05-10T06:21:25.912Z,37.43
2018-05-10T06:22:47.753Z,37.93
2018-05-10T06:24:09.568Z,38.38
2018-05-10T06:25:31.649Z,38.6
2018-05-10T06:26:53.472Z,38.65
2018-05-10T06:28:15.566Z,38.79
2018-05-10T06:29:37.661Z,39.03
2018-05-10T06:30:59.771Z,39.59
2018-05-10T06:32:21.869Z,39.85
2018-05-10T06:33:43.675Z,39.89
2018-05-10T06:35:05.771Z,39.73
2018-05-10T06:36:27.867Z,39.69
2018-05-10T06:37:49.793Z,39.54
2018-05-10T06:39:11.094Z,39.35
2018-05-10T06:40:32.679Z,39.35
2018-05-10T06:41:54.529Z,39.06
2018-05-10T06:43:16.368Z,39.33
2018-05-10T06:44:38.184Z,39.73
2018-05-10T06:45:59.737Z,38.88
2018-05-10T06:47:21.564Z,38.88
2018-05-10T06:48:43.392Z,38.06
2018-05-10T06:50:05.514Z,37.56
2018-05-10T06:51:27.098Z,37.37
2018-05-10T06:52:48.934Z,37.74
2018-05-10T06:54:10.783Z,38.4
2018-05-10T06:55:32.088Z,39.1
2018-05-10T06:56:53.932Z,39.32
2018-05-10T06:58:15.479Z,39.52
2018-05-10T06:59:37.567Z,39.66
2018-05-10T07:00:59.668Z,39.55
2018-05-10T07:02:21.774Z,39.29
2018-05-10T07:03:43.601Z,38.07
2018-05-10T07:05:05.448Z,36.28
2018-05-10T07:06:27.542Z,35.14
2018-05-10T07:07:49.630Z,33.75
2018-05-10T07:09:11.457Z,32.18
2018-05-10T07:10:33.700Z,31.07
2018-05-10T07:11:55.538Z,30.37
2018-05-10T07:13:17.358Z,29.51
2018-05-10T07:14:38.651Z,28.73
2018-05-10T07:16:00.485Z,28.07
2018-05-10T07:17:22.588Z,27.6
2018-05-10T07:18:44.685Z,27.27
2018-05-10T07:20:06.883Z,27.27
2018-05-10T07:21:28.972Z,27.17
2018-05-10T07:22:51.068Z,27
2018-05-10T07:24:12.901Z,26.88
2018-05-10T07:25:35.165Z,26.87
2018-05-10T07:26:56.751Z,26.87
2018-05-10T07:28:18.891Z,27.06
2018-05-10T07:29:40.730Z,26.99
2018-05-10T07:31:02.563Z,26.85
2018-05-10T07:32:24.675Z,26.8
2018-05-10T07:33:46.745Z,26.72
2018-05-10T07:35:08.562Z,26.81
2018-05-10T07:36:30.667Z,26.85
2018-05-10T07:37:51.961Z,26.8
2018-05-10T07:39:14.045Z,27.24
2018-05-10T07:40:36.074Z,27.37
2018-05-10T07:41:58.426Z,27.65
2018-05-10T07:43:21.183Z,27.66
2018-05-10T07:44:43.435Z,27.43
2018-05-10T07:46:06.028Z,26.99
2018-05-10T07:47:28.224Z,27.09
2018-05-10T07:48:49.885Z,27.14
2018-05-10T07:50:11.708Z,27.41
2018-05-10T07:51:33.777Z,27.62
2018-05-10T07:52:55.331Z,27.97
2018-05-10T07:54:17.157Z,28.39
2018-05-10T07:55:39.235Z,28.61
2018-05-10T07:57:01.349Z,28.62
2018-05-10T07:58:23.459Z,28.36
2018-05-10T07:59:45.014Z,27.9
2018-05-10T08:01:07.098Z,28.02
2018-05-10T08:02:29.434Z,28.3
2018-05-10T08:03:51.631Z,28.62
2018-05-10T08:05:13.719Z,28.92
2018-05-10T08:06:35.553Z,29.24
2018-05-10T08:07:57.391Z,29.6
2018-05-10T08:09:19.227Z,29.83
2018-05-10T08:10:41.062Z,30.08
2018-05-10T08:12:02.895Z,30.08
2018-05-10T08:13:24.982Z,30.11
2018-05-10T08:14:46.845Z,30.37
2018-05-10T08:16:09.181Z,30.65
2018-05-10T08:17:31.925Z,30.89
2018-05-10T08:18:54.527Z,30.75
2018-05-10T08:20:16.825Z,30.83
2018-05-10T08:21:39.392Z,30.95
2018-05-10T08:23:01.591Z,30.82
2018-05-10T08:24:24.232Z,30.43
2018-05-10T08:25:46.807Z,30.04
2018-05-10T08:27:09.385Z,29.76
2018-05-10T08:28:31.974Z,29.65
2018-05-10T08:29:54.545Z,29.15
2018-05-10T08:31:16.857Z,29.04
2018-05-10T08:32:39.047Z,28.8
2018-05-10T08:34:01.606Z,28.64
2018-05-10T08:35:24.142Z,28.3
2018-05-10T08:36:46.827Z,28.09
2018-05-10T08:38:09.674Z,28.03
2018-05-10T08:39:31.967Z,27.9
2018-05-10T08:40:54.547Z,27.62
2018-05-10T08:42:16.172Z,27.29
2018-05-10T08:43:38.727Z,27.25
2018-05-10T08:45:01.597Z,27.13
2018-05-10T08:46:24.652Z,26.95
2018-05-10T08:47:46.929Z,26.91
2018-05-10T08:49:09.169Z,26.73
2018-05-10T08:50:31.743Z,26.76
2018-05-10T08:51:54.519Z,26.87
2018-05-10T08:53:17.539Z,26.89
2018-05-10T08:54:40.118Z,26.84
2018-05-10T08:56:02.241Z,26.92
2018-05-10T08:57:24.817Z,26.82
2018-05-10T08:58:47.042Z,26.77
2018-05-10T09:00:09.486Z,26.85
2018-05-10T09:01:31.767Z,26.66
2018-05-10T09:02:54.265Z,26.75
2018-05-10T09:04:17.096Z,26.75
2018-05-10T09:05:39.689Z,26.7
2018-05-10T09:07:02.330Z,26.66
2018-05-10T09:08:24.585Z,26.52
2018-05-10T09:09:46.487Z,26.47
2018-05-10T09:11:09.089Z,26.44
2018-05-10T09:12:30.839Z,26.54
2018-05-10T09:13:53.335Z,26.55
2018-05-10T09:15:15.440Z,26.51
2018-05-10T09:16:37.700Z,26.57
2018-05-10T09:18:00.272Z,26.67
2018-05-10T09:19:22.540Z,26.63
2018-05-10T09:20:45.103Z,26.52
2018-05-10T09:22:07.061Z,26.52
2018-05-10T09:23:29.308Z,26.51
2018-05-10T09:24:52.208Z,26.63
2018-05-10T09:26:14.878Z,26.66
2018-05-10T09:27:36.871Z,26.32
2018-05-10T09:28:59.508Z,26.12
2018-05-10T09:30:22.096Z,26.12
2018-05-10T09:31:44.890Z,26.13
2018-05-10T09:33:07.355Z,26.05
2018-05-10T09:34:29.677Z,25.85
2018-05-10T09:35:51.912Z,25.72
2018-05-10T09:37:14.457Z,25.95
2018-05-10T09:38:36.718Z,25.95
2018-05-10T09:39:58.984Z,25.9
2018-05-10T09:41:21.041Z,25.97
2018-05-10T09:42:43.618Z,25.97
2018-05-10T09:44:06.181Z,25.99
2018-05-10T09:45:28.435Z,26.02
2018-05-10T09:46:50.965Z,26.09
2018-05-10T09:48:13.250Z,26.15
2018-05-10T09:49:35.803Z,26.25
2018-05-10T09:50:58.043Z,26.28
2018-05-10T09:52:20.897Z,26.28
2018-05-10T09:53:42.837Z,26.33
2018-05-10T09:55:05.431Z,26.3
2018-05-10T09:56:27.697Z,26.23
2018-05-10T09:57:49.948Z,26.18
2018-05-10T09:59:12.500Z,25.99
2018-05-10T10:00:34.749Z,25.88
2018-05-10T10:01:56.697Z,25.65
2018-05-10T10:03:19.587Z,25.42
2018-05-10T10:04:42.174Z,25.35
2018-05-10T10:06:04.109Z,25.27
2018-05-10T10:07:26.472Z,24.96
2018-05-10T10:08:49.038Z,24.8
2018-05-10T10:10:11.590Z,24.73
2018-05-10T10:11:33.668Z,24.67
2018-05-10T10:12:56.422Z,24.67
2018-05-10T10:14:18.642Z,24.6
2018-05-10T10:15:41.113Z,24.6
2018-05-10T10:17:03.557Z,24.5
2018-05-10T10:18:26.407Z,24.58
2018-05-10T10:19:48.620Z,24.77
2018-05-10T10:21:11.188Z,24.8
2018-05-10T10:22:33.407Z,24.61
2018-05-10T10:23:55.757Z,24.52
2018-05-10T10:25:18.546Z,24.43
2018-05-10T10:26:41.207Z,24.57
2018-05-10T10:28:03.965Z,24.45
2018-05-10T10:29:26.503Z,24.08
2018-05-10T10:30:48.733Z,24.13
2018-05-10T10:32:10.927Z,24.22
2018-05-10T10:33:33.701Z,24.13
2018-05-10T10:34:55.669Z,23.91
2018-05-10T10:36:18.317Z,23.88
2018-05-10T10:37:40.819Z,23.7
2018-05-10T10:39:03.056Z,23.7
2018-05-10T10:40:25.146Z,23.78
2018-05-10T10:41:47.686Z,23.9
2018-05-10T10:43:10.218Z,24
2018-05-10T10:44:32.170Z,23.8
2018-05-10T10:45:54.950Z,23.63
2018-05-10T10:47:17.592Z,23.79
2018-05-10T10:48:40.160Z,23.94
2018-05-10T10:50:02.972Z,23.88
2018-05-10T10:51:25.518Z,23.7
2018-05-10T10:52:48.189Z,23.65
2018-05-10T10:54:10.781Z,23.43
2018-05-10T10:55:33.059Z,23.47
2018-05-10T10:56:55.078Z,23.65
2018-05-10T10:58:17.328Z,23.51
2018-05-10T10:59:39.620Z,23.46
2018-05-10T11:01:02.265Z,23.66
2018-05-10T11:02:24.408Z,23.73
2018-05-10T11:03:46.763Z,23.78
2018-05-10T11:05:09.340Z,23.66
2018-05-10T11:06:31.595Z,23.7
2018-05-10T11:07:53.871Z,23.88
2018-05-10T11:09:16.585Z,24.02
2018-05-10T11:10:38.944Z,23.91
2018-05-10T11:12:00.919Z,23.78
2018-05-10T11:13:23.502Z,23.91
2018-05-10T11:14:45.444Z,24.02
2018-05-10T11:16:07.684Z,24.24
2018-05-10T11:17:29.896Z,24.27
2018-05-10T11:18:51.543Z,24.43
2018-05-10T11:20:14.375Z,24.64
2018-05-10T11:21:36.606Z,24.83
2018-05-10T11:22:58.564Z,25.21
2018-05-10T11:24:20.802Z,25.51
2018-05-10T11:25:43.067Z,25.91
2018-05-10T11:27:05.626Z,26.25
2018-05-10T11:28:27.587Z,26.58
2018-05-10T11:29:50.225Z,26.85
2018-05-10T11:31:12.878Z,26.97
2018-05-10T11:32:34.904Z,26.6
2018-05-10T11:33:57.762Z,26.54
2018-05-10T11:35:20.335Z,26.62
2018-05-10T11:36:42.312Z,26.51
2018-05-10T11:38:04.315Z,26.66
2018-05-10T11:39:26.573Z,26.87
2018-05-10T11:40:49.163Z,26.85
2018-05-10T11:42:11.743Z,27.06
2018-05-10T11:43:34.590Z,26.94
2018-05-10T11:44:56.812Z,26.92
2018-05-10T11:46:19.057Z,26.94
2018-05-10T11:47:41.648Z,26.82
2018-05-10T11:49:03.965Z,26.85
2018-05-10T11:50:26.552Z,26.81
2018-05-10T11:51:48.780Z,26.57
2018-05-10T11:53:11.346Z,26.55
2018-05-10T11:54:33.625Z,26.3
2018-05-10T11:55:55.897Z,25.98
2018-05-10T11:57:18.253Z,25.92
2018-05-10T11:58:40.929Z,25.75
2018-05-10T12:00:03.435Z,25.5
2018-05-10T12:01:25.423Z,25.39
2018-05-10T12:02:48.182Z,25.14
2018-05-10T12:04:09.820Z,24.93
2018-05-10T12:05:32.386Z,24.77
2018-05-10T12:06:54.356Z,24.4
2018-05-10T12:08:17.192Z,24.31
2018-05-10T12:09:39.757Z,24.05
2018-05-10T12:11:02.011Z,23.8
2018-05-10T12:12:23.665Z,23.72
2018-05-10T12:13:45.607Z,23.75
2018-05-10T12:15:08.176Z,23.72
2018-05-10T12:16:30.744Z,23.63
2018-05-10T12:17:52.970Z,23.32
2018-05-10T12:19:15.012Z,23.17
2018-05-10T12:20:37.454Z,22.92
2018-05-10T12:21:59.664Z,22.82
2018-05-10T12:23:21.926Z,22.76
2018-05-10T12:24:44.198Z,22.82
2018-05-10T12:26:06.472Z,22.85
2018-05-10T12:27:28.954Z,23.05
2018-05-10T12:28:51.201Z,23.09
2018-05-10T12:30:13.364Z,22.97
2018-05-10T12:31:35.726Z,22.72
2018-05-10T12:32:58.245Z,22.52
2018-05-10T12:34:21.045Z,22.18
2018-05-10T12:35:43.600Z,22.14
2018-05-10T12:37:05.872Z,22.22
2018-05-10T12:38:28.119Z,22.28
2018-05-10T12:39:50.493Z,22.57
2018-05-10T12:41:12.791Z,22.68
2018-05-10T12:42:35.357Z,22.46
2018-05-10T12:43:57.632Z,22.21
2018-05-10T12:45:19.892Z,22.03
2018-05-10T12:46:42.415Z,21.83
2018-05-10T12:48:04.365Z,21.64
2018-05-10T12:49:26.609Z,21.53
2018-05-10T12:50:49.146Z,21.47
2018-05-10T12:52:11.478Z,21.34
2018-05-10T12:53:33.733Z,21.35
2018-05-10T12:54:56.227Z,21.35
2018-05-10T12:56:18.625Z,21.56
2018-05-10T12:57:41.237Z,21.59
2018-05-10T12:59:03.162Z,21.71
2018-05-10T13:00:25.718Z,21.67
2018-05-10T13:01:47.680Z,21.49
2018-05-10T13:03:09.945Z,21.37
2018-05-10T13:04:32.278Z,21.24
2018-05-10T13:05:54.528Z,20.94
2018-05-10T13:07:16.437Z,20.88
2018-05-10T13:08:38.929Z,20.89
2018-05-10T13:10:01.409Z,20.84
2018-05-10T13:11:23.355Z,20.92
2018-05-10T13:12:45.322Z,20.7
2018-05-10T13:14:07.877Z,20.32
2018-05-10T13:15:30.133Z,20.11
2018-05-10T13:16:51.804Z,20.02
2018-05-10T13:18:14.071Z,19.94
2018-05-10T13:19:35.764Z,19.78
2018-05-10T13:20:58.341Z,19.65
2018-05-10T13:22:20.892Z,19.46
2018-05-10T13:23:43.128Z,19.22
2018-05-10T13:25:05.389Z,18.92
2018-05-10T13:26:27.930Z,18.87
2018-05-10T13:27:50.505Z,18.75
2018-05-10T13:29:12.479Z,18.65
2018-05-10T13:30:34.733Z,18.75
2018-05-10T13:31:57.019Z,18.62
2018-05-10T13:33:19.561Z,18.54
2018-05-10T13:34:41.561Z,18.44
2018-05-10T13:36:03.748Z,18.39
2018-05-10T13:37:25.709Z,18.35
2018-05-10T13:38:47.657Z,18.32
2018-05-10T13:40:09.317Z,18.26
2018-05-10T13:41:31.857Z,18.12
2018-05-10T13:42:53.791Z,18.1
2018-05-10T13:44:16.088Z,18.08
2018-05-10T13:45:38.602Z,18.1
2018-05-10T13:47:00.878Z,18.08
2018-05-10T13:48:23.438Z,17.93
2018-05-10T13:49:45.364Z,17.97
2018-05-10T13:51:07.938Z,17.82
2018-05-10T13:52:30.411Z,17.92
2018-05-10T13:53:52.695Z,17.99
2018-05-10T13:55:14.925Z,18.08
2018-05-10T13:56:36.847Z,18.18
2018-05-10T13:57:59.335Z,18.11
2018-05-10T13:59:21.882Z,17.97
2018-05-10T14:00:44.441Z,18.08
2018-05-10T14:02:06.997Z,18.05
2018-05-10T14:03:29.257Z,17.92
2018-05-10T14:04:51.787Z,17.95
2018-05-10T14:06:14.324Z,17.87
2018-05-10T14:07:37.115Z,17.86
2018-05-10T14:08:59.299Z,17.79
2018-05-10T14:10:21.393Z,17.7
2018-05-10T14:11:43.517Z,17.7
2018-05-10T14:13:05.388Z,17.71
2018-05-10T14:14:27.226Z,17.75
2018-05-10T14:15:49.377Z,17.82
2018-05-10T14:17:11.253Z,17.99
2018-05-10T14:18:33.355Z,18.11
2018-05-10T14:19:55.085Z,18.33
2018-05-10T14:21:16.680Z,18.51
2018-05-10T14:22:38.822Z,18.52
2018-05-10T14:24:00.967Z,18.57
2018-05-10T14:25:23.192Z,18.44
2018-05-10T14:26:45.590Z,18.39
2018-05-10T14:28:07.433Z,18.15
2018-05-10T14:29:29.582Z,17.97
2018-05-10T14:30:51.156Z,17.9
2018-05-10T14:32:13.250Z,17.9
2018-05-10T14:33:35.429Z,18.1
2018-05-10T14:34:57.272Z,17.96
2018-05-10T14:36:19.392Z,17.92
2018-05-10T14:37:41.232Z,17.96
2018-05-10T14:39:03.351Z,17.9
2018-05-10T14:40:25.505Z,17.95
2018-05-10T14:41:47.348Z,17.77
2018-05-10T14:43:09.458Z,17.78
2018-05-10T14:44:31.577Z,17.77
2018-05-10T14:45:53.709Z,17.75
2018-05-10T14:47:15.837Z,17.71
2018-05-10T14:48:37.968Z,17.56
2018-05-10T14:50:00.099Z,17.55
2018-05-10T14:51:22.209Z,17.62
2018-05-10T14:52:44.314Z,17.66
2018-05-10T14:54:05.917Z,17.74
2018-05-10T14:55:28.139Z,17.87
2018-05-10T14:56:50.255Z,18.14
2018-05-10T14:58:12.074Z,18.33
2018-05-10T14:59:34.186Z,18.55
2018-05-10T15:00:56.433Z,18.55
2018-05-10T15:02:18.307Z,18.42
2018-05-10T15:03:40.379Z,18.55
2018-05-10T15:05:02.234Z,18.55
2018-05-10T15:06:24.362Z,18.3
2018-05-10T15:07:46.465Z,18.14
2018-05-10T15:09:08.309Z,17.84
2018-05-10T15:10:30.493Z,17.82
2018-05-10T15:11:52.609Z,17.77
2018-05-10T15:13:14.457Z,17.62
2018-05-10T15:14:36.540Z,17.54
2018-05-10T15:15:58.625Z,17.71
2018-05-10T15:17:20.737Z,17.78
2018-05-10T15:18:42.546Z,17.7
2018-05-10T15:20:04.652Z,17.49
2018-05-10T15:21:26.277Z,17.28
2018-05-10T15:22:48.121Z,17.31
2018-05-10T15:24:09.958Z,17.16
2018-05-10T15:25:32.091Z,17.08
2018-05-10T15:26:54.164Z,16.86
2018-05-10T15:28:16.000Z,16.94
2018-05-10T15:29:37.563Z,17.11
2018-05-10T15:30:59.696Z,17.15
2018-05-10T15:32:21.554Z,17.11
2018-05-10T15:33:43.674Z,17.01
2018-05-10T15:35:05.779Z,16.89
2018-05-10T15:36:27.595Z,16.97
2018-05-10T15:37:49.420Z,16.98
2018-05-10T15:39:11.401Z,16.91
2018-05-10T15:40:33.537Z,17
2018-05-10T15:41:55.456Z,17.03
2018-05-10T15:43:17.296Z,17.06
2018-05-10T15:44:39.193Z,17.15
2018-05-10T15:46:01.293Z,17.31
2018-05-10T15:47:23.405Z,17.46
2018-05-10T15:48:45.246Z,17.49
2018-05-10T15:50:07.090Z,17.7
2018-05-10T15:51:29.264Z,17.77
2018-05-10T15:52:51.418Z,17.79
2018-05-10T15:54:13.241Z,17.95
2018-05-10T15:55:35.096Z,17.9
2018-05-10T15:56:56.934Z,17.99
2018-05-10T15:58:19.061Z,17.89
2018-05-10T15:59:40.932Z,17.71
2018-05-10T16:01:02.783Z,17.63
2018-05-10T16:02:24.865Z,17.51
2018-05-10T16:03:46.713Z,17.74
2018-05-10T16:05:08.805Z,17.72
2018-05-10T16:06:30.383Z,17.71
2018-05-10T16:07:52.522Z,17.64
2018-05-10T16:09:14.622Z,17.7
2018-05-10T16:10:36.746Z,17.86
2018-05-10T16:11:58.874Z,18.08
2018-05-10T16:13:20.998Z,18.1
2018-05-10T16:14:42.860Z,18.26
2018-05-10T16:16:04.431Z,18.26
2018-05-10T16:17:26.522Z,18.27
2018-05-10T16:18:48.348Z,18.32
2018-05-10T16:20:10.432Z,18.29
2018-05-10T16:21:32.536Z,18.32
2018-05-10T16:22:54.637Z,18.36
2018-05-10T16:24:16.473Z,18.23
2018-05-10T16:25:38.580Z,18.17
2018-05-10T16:27:00.453Z,17.95
2018-05-10T16:28:22.300Z,17.87
2018-05-10T16:29:44.157Z,17.7
2018-05-10T16:31:06.264Z,17.7
2018-05-10T16:32:28.385Z,17.52
2018-05-10T16:33:50.695Z,17.34
2018-05-10T16:35:12.590Z,17.31
2018-05-10T16:36:34.706Z,17.38
2018-05-10T16:37:56.548Z,17.31
2018-05-10T16:39:18.176Z,17.3
2018-05-10T16:40:40.087Z,17.25
2018-05-10T16:42:01.660Z,17.34
2018-05-10T16:43:23.212Z,17.36
2018-05-10T16:44:44.514Z,17.15
2018-05-10T16:46:06.659Z,17.03
2018-05-10T16:47:28.517Z,17.03
2018-05-10T16:48:50.615Z,16.97
2018-05-10T16:50:12.700Z,16.83
2018-05-10T16:51:34.794Z,16.86
2018-05-10T16:52:56.602Z,16.75
2018-05-10T16:54:18.668Z,16.68
2018-05-10T16:55:40.528Z,16.66
2018-05-10T16:57:02.381Z,16.53
2018-05-10T16:58:24.480Z,16.45
2018-05-10T16:59:46.587Z,16.61
2018-05-10T17:01:08.705Z,16.41
2018-05-10T17:02:30.858Z,16.39
2018-05-10T17:03:52.967Z,16.39
2018-05-10T17:05:15.088Z,16.05
2018-05-10T17:06:36.946Z,16.21
2018-05-10T17:07:59.040Z,16.21
2018-05-10T17:09:20.890Z,16.07
2018-05-10T17:10:43.021Z,16.08
2018-05-10T17:12:05.110Z,16.09
2018-05-10T17:13:27.223Z,16.14
2018-05-10T17:14:49.051Z,16.25
2018-05-10T17:16:10.890Z,16
2018-05-10T17:17:32.708Z,16.02
2018-05-10T17:18:54.809Z,15.84
2018-05-10T17:20:16.364Z,15.84
2018-05-10T17:21:38.462Z,15.72
2018-05-10T17:23:00.549Z,15.84
2018-05-10T17:24:22.655Z,15.74
2018-05-10T17:25:43.952Z,15.74
2018-05-10T17:27:05.272Z,15.75
2018-05-10T17:28:27.104Z,15.65
2018-05-10T17:29:48.945Z,15.56
2018-05-10T17:31:10.857Z,15.53
2018-05-10T17:32:32.964Z,15.43
2018-05-10T17:33:55.075Z,15.46
2018-05-10T17:35:17.250Z,15.36
2018-05-10T17:36:39.362Z,15.29
2018-05-10T17:38:01.490Z,15.2
2018-05-10T17:39:23.363Z,15.21
2018-05-10T17:40:45.206Z,15.17
2018-05-10T17:42:07.304Z,15.03